Date,TemperatureHighF,TemperatureAvgF,TemperatureLowF,DewpointHighF,DewpointAvgF,DewpointLowF,HumidityHigh,HumidityAvg,HumidityLow,PressureMaxIn,PressureMinIn,WindSpeedMaxMPH,WindSpeedAvgMPH,GustSpeedMaxMPH,PrecipitationSumIn
2013-9-1,91,77,72,81,74,-100,100,93,70,0.00,40.00,3,1,9,0.00
2013-9-2,88,78,72,79,75,72,100,94,71,0.00,40.00,4,2,10,0.00
2013-9-3,88,76,66,81,72,66,100,88,48,0.00,40.00,4,2,9,0.00
2013-9-4,82,68,57,66,62,57,100,83,49,0.00,40.00,4,1,12,0.00
2013-9-5,87,70,58,70,63,57,100,82,44,0.00,40.00,5,2,12,0.00
2013-9-6,76,66,56,63,59,54,100,80,47,0.00,40.00,4,2,10,0.00
2013-9-7,82,64,49,64,56,49,100,82,41,0.00,40.00,4,1,9,0.00
2013-9-8,88,70,59,73,62,-100,100,83,47,0.00,40.00,4,1,11,0.00
2013-9-9,79,69,60,72,66,56,100,90,72,0.00,40.00,4,2,10,0.00
2013-9-10,90,76,63,78,72,63,100,89,60,0.00,40.00,3,1,11,0.00
2013-9-11,93,78,68,79,72,68,100,86,52,0.00,40.00,3,1,9,0.00
2013-9-12,91,77,69,79,71,66,100,86,44,0.00,40.00,5,2,14,0.70
2013-9-13,79,71,61,72,66,58,100,86,50,0.00,40.00,5,2,14,0.74
2013-9-14,74,60,49,61,54,49,100,84,45,0.00,40.00,4,2,12,0.01
2013-9-15,77,52,42,61,47,-100,100,92,50,0.00,40.00,3,0,9,0.00
2013-9-16,76,64,55,71,63,55,100,96,79,0.00,40.00,3,1,11,0.00
2013-9-17,67,57,46,55,51,46,100,85,54,0.00,40.00,5,2,14,0.00
2013-9-18,49,45,44,47,45,44,100,100,100,0.00,40.00,2,0,3,0.00
2013-9-19,78,58,45,60,52,45,100,84,43,0.00,40.00,4,1,9,0.00
2013-9-20,79,60,45,62,54,45,100,85,50,0.00,40.00,3,1,11,0.00
2013-9-21,82,65,49,71,61,49,100,89,54,0.00,40.00,4,2,12,0.03
2013-9-22,76,65,52,68,58,-100,100,85,43,0.00,40.00,4,2,16,0.62
2013-9-23,69,55,45,53,48,45,100,83,45,0.00,40.00,4,1,12,0.01
2013-9-24,72,54,41,53,46,41,100,81,39,0.00,40.00,5,2,12,0.00
2013-9-25,79,57,44,60,50,44,100,84,39,0.00,40.00,3,1,7,0.00
2013-9-26,76,61,53,64,57,53,100,89,55,0.00,40.00,4,1,10,0.00
2013-9-27,72,60,51,61,55,51,100,87,55,0.00,40.00,4,1,12,0.00
2013-9-28,72,61,52,63,58,52,100,90,61,0.00,40.00,4,1,11,0.00
2013-9-29,74,59,49,65,52,-100,100,85,51,0.00,40.00,5,2,11,0.00
2013-9-30,75,57,46,61,53,46,100,88,48,0.00,40.00,3,1,10,0.00